Stations météo

Publicité
Briancon, France (7593): Température de l'air & dewpoint: 17.04.2019 03:00:00 - 23.04.2019 03:00:00 (CEST)Briancon, France (7593): Vitesse du vent: 17.04.2019 03:00:00 - 23.04.2019 03:00:00 (CEST)Briancon, France (7593): Direction du vent: 17.04.2019 03:00:00 - 23.04.2019 03:00:00 (CEST)Briancon, France (7593): Quantités de précipitations: 17.04.2019 03:00:00 - 23.04.2019 03:00:00 (CEST)
Date & Time tt [°C] td [°C] ff [km/h] ff [knt] dd rr [mm]
23.04.2019 03:00:00 5,6 0,6 6 3 N 0,0
23.04.2019 02:00:00 6,1 0,4 8 5 N 0,0
23.04.2019 01:00:00 6,2 -0,5 6 4 NNE 0,0
23.04.2019 00:00:00 6,4 0,1 10 6 ENE 0,0
22.04.2019 23:00:00 6,8 -1,9 13 7 NE 0,0
22.04.2019 22:00:00 7,4 -2,9 12 7 NE 0,0
22.04.2019 21:00:00 7,7 -2,9 18 10 NNE 0,0
22.04.2019 20:00:00 9,0 -4,9 10 5 NE 0,0
22.04.2019 19:00:00 9,6 -5,1 19 10 NE 0,0
22.04.2019 18:00:00 10,3 -4,9 23 12 NNE 0,0
22.04.2019 17:00:00 11,1 -4,6 27 15 NNE 0,0
22.04.2019 16:00:00 11,3 -3,6 29 16 NE 0,0
22.04.2019 15:00:00 12,6 -2,1 23 13 NNE 0,0
22.04.2019 14:00:00 13,0 -1,7 18 10 NNE 0,0
22.04.2019 13:00:00 12,1 -1,8 19 10 NE 0,0
22.04.2019 12:00:00 11,3 -1,8 21 11 NNE 0,0
22.04.2019 11:00:00 10,5 -2,2 16 8 NNE 0,0
22.04.2019 10:00:00 9,8 -2,8 21 11 NNE 0,0
22.04.2019 09:00:00 9,8 -2,2 18 10 NE 0,0
22.04.2019 08:00:00 9,2 -3,4 19 11 NE 0,0
22.04.2019 07:00:00 8,8 -3,8 20 11 NE 0,0
22.04.2019 06:00:00 8,8 -3,4 19 10 NNE 0,0
22.04.2019 05:00:00 8,8 -3,4 16 9 NE 0,0
22.04.2019 04:00:00 8,4 -3,8 10 5 ENE 0,0
22.04.2019 03:00:00 7,4 -5,3 10 6 ENE 0,0
22.04.2019 02:00:00 8,5 -4,0 9 5 ENE 0,0
22.04.2019 01:00:00 9,0 -5,3 13 7 NE 0,0
22.04.2019 00:00:00 10,5 -9,8 11 6 ENE 0,0
21.04.2019 23:00:00 10,6 -8,7 17 9 NE 0,0
21.04.2019 22:00:00 10,8 -5,7 14 7 NE 0,0
21.04.2019 21:00:00 11,2 -4,1 18 10 ENE 0,0
21.04.2019 20:00:00 11,5 -3,1 12 7 NNE 0,0
21.04.2019 19:00:00 12,6 -2,9 16 9 NE 0,0
21.04.2019 18:00:00 12,4 -2,3 15 8 N 0,0
21.04.2019 17:00:00 12,6 -2,1 19 11 NE 0,0
21.04.2019 16:00:00 12,2 -2,1 17 9 NNE 0,0
21.04.2019 15:00:00 12,5 -2,2 18 10 NNE 0,0
21.04.2019 14:00:00 12,0 -2,6 13 7 NE 0,0
21.04.2019 13:00:00 12,3 -3,9 12 7 NE 0,0
21.04.2019 12:00:00 11,7 -3,3 14 7 NNE 0,0
21.04.2019 11:00:00 9,5 -0,4 11 6 WSW 0,0
21.04.2019 10:00:00 10,1 -1,9 8 4 NW 0,0
21.04.2019 09:00:00 9,4 -2,6 12 6 NNE 0,0
21.04.2019 08:00:00 9,5 -3,1 11 6 NNE 0,0
21.04.2019 07:00:00 9,5 -2,8 16 9 NE 0,0
21.04.2019 06:00:00 9,5 -1,6 15 8 NE 0,0
21.04.2019 05:00:00 9,7 -2,3 17 9 NE 0,0
21.04.2019 04:00:00 9,7 -2,3 14 8 NE 0,0
21.04.2019 03:00:00 6,3 -3,6 3 2 ENE 0,0
21.04.2019 02:00:00 5,9 -3,7 3 2 S 0,0
21.04.2019 01:00:00 6,1 -4,7 4 2 E 0,0
21.04.2019 00:00:00 6,8 -5,2 3 2 ENE 0,0
20.04.2019 23:00:00 8,1 -5,0 9 5 ESE 0,0
20.04.2019 22:00:00 9,7 -4,3 14 8 NE 0,0
20.04.2019 21:00:00 10,2 -3,9 13 7 NE 0,0
20.04.2019 20:00:00 10,9 -3,6 13 7 NNE 0,0
20.04.2019 19:00:00 12,1 -4,1 9 5 NE 0,0
20.04.2019 18:00:00 13,2 -4,5 11 6 NE 0,0
20.04.2019 17:00:00 13,7 -4,0 16 9 ENE 0,0
20.04.2019 16:00:00 14,2 -3,6 11 6 ENE 0,0
20.04.2019 15:00:00 14,6 -1,9 12 6 NNE 0,0
20.04.2019 14:00:00 13,9 -1,7 22 12 NNE 0,0
20.04.2019 13:00:00 13,3 -3,5 10 5 NNE 0,0
20.04.2019 12:00:00 12,6 -4,5 10 6 NNE 0,0
20.04.2019 11:00:00 12,4 -2,7 13 7 NNE 0,0
20.04.2019 10:00:00 10,4 -3,3 9 5 N 0,0
20.04.2019 09:00:00 6,4 -1,5 3 2 SE 0,0
20.04.2019 08:00:00 4,1 -3,4 5 3 E 0,0
20.04.2019 07:00:00 1,9 -3,4 3 2 E 0,0
20.04.2019 06:00:00 2,7 -3,2 3 2 SE 0,0
20.04.2019 05:00:00 3,1 -2,8 2 1 ENE 0,0
20.04.2019 04:00:00 4,8 -1,4 10 6 NE 0,0
20.04.2019 03:00:00 5,7 -1,7 13 7 ENE 0,0
20.04.2019 02:00:00 6,5 -0,7 9 5 ENE 0,0
20.04.2019 01:00:00 6,9 -0,3 16 8 ENE 0,0
20.04.2019 00:00:00 7,3 -0,4 16 9 ENE 0,0
19.04.2019 23:00:00 7,6 -0,6 16 9 ENE 0,0
19.04.2019 22:00:00 8,7 -0,6 11 6 ENE 0,0
19.04.2019 21:00:00 9,2 -0,7 11 6 ENE 0,0
19.04.2019 20:00:00 10,4 -1,3 9 5 ESE 0,0
19.04.2019 19:00:00 11,8 -1,7 11 6 E 0,0
19.04.2019 18:00:00 12,1 -2,2 14 7 ENE 0,0
19.04.2019 17:00:00 12,1 -2,2 13 7 ENE 0,0
19.04.2019 16:00:00 12,6 -1,7 11 6 ENE 0,0
19.04.2019 15:00:00 12,2 -1,4 9 5 NE 0,0
19.04.2019 14:00:00 12,0 -1,5 11 6 ENE 0,0
19.04.2019 13:00:00 11,4 -1,7 16 9 NE 0,0
19.04.2019 12:00:00 10,8 -1,6 8 4 E 0,0
19.04.2019 11:00:00 10,3 -1,8 5 3 E 0,0
19.04.2019 10:00:00 9,1 -1,3 9 5 NE 0,0
19.04.2019 09:00:00 9,0 -1,4 15 8 NNE 0,0
19.04.2019 08:00:00 8,4 -1,2 15 8 NE 0,0
19.04.2019 07:00:00 8,2 -0,3 13 7 NE 0,0
19.04.2019 06:00:00 7,9 0,8 10 5 NNE 0,0
19.04.2019 05:00:00 8,4 0,4 13 7 ENE 0,0
19.04.2019 04:00:00 8,6 0,6 17 9 NE 0,0
19.04.2019 03:00:00 8,9 0,1 12 7 NE 0,0
19.04.2019 02:00:00 9,1 0,3 8 4 NE 0,0
19.04.2019 01:00:00 9,0 0,7 11 6 NNE 0,0
19.04.2019 00:00:00 9,3 1,2 10 5 NNE 0,0
18.04.2019 23:00:00 9,5 1,1 10 5 NNE 0,0
18.04.2019 22:00:00 9,6 1,2 16 9 NNE 0,0
18.04.2019 21:00:00 10,0 0,3 10 6 NNE 0,0
18.04.2019 20:00:00 10,4 0,1 11 6 NNE 0,0
18.04.2019 19:00:00 11,1 -0,1 25 13 ENE 0,0
18.04.2019 18:00:00 12,2 0,6 19 10 NE 0,0
18.04.2019 17:00:00 11,9 0,6 20 11 ENE 0,0
18.04.2019 16:00:00 12,4 0,8 17 9 ENE 0,0
18.04.2019 15:00:00 12,6 1,0 16 9 NE 0,0
18.04.2019 14:00:00 13,0 1,3 14 8 ENE 0,0
18.04.2019 13:00:00 13,2 0,9 11 6 NE 0,0
18.04.2019 12:00:00 13,1 0,5 10 5 ENE 0,0
18.04.2019 11:00:00 12,0 0,1 10 5 NE 0,0
18.04.2019 10:00:00 11,5 -0,3 9 5 NE 0,0
18.04.2019 09:00:00 10,1 0,4 10 5 NE 0,0
18.04.2019 08:00:00 7,4 0,8 14 7 ENE 0,0
18.04.2019 07:00:00 7,0 0,4 12 7 ENE 0,0
18.04.2019 06:00:00 7,1 0,7 11 6 ENE 0,0
18.04.2019 05:00:00 7,4 1,0 10 5 ENE 0,0
18.04.2019 04:00:00 7,5 1,3 8 4 ENE 0,0
18.04.2019 03:00:00 7,8 1,4 8 4 ENE 0,0
18.04.2019 02:00:00 7,8 1,4 8 4 NE 0,0
18.04.2019 01:00:00 8,0 1,6 10 5 NE 0,0
18.04.2019 00:00:00 8,8 1,7 11 6 NE 0,0
17.04.2019 23:00:00 9,5 1,9 12 7 NE 0,0
17.04.2019 22:00:00 10,3 1,6 18 10 E 0,0
17.04.2019 21:00:00 10,8 1,6 19 10 ENE 0,0
17.04.2019 20:00:00 11,8 1,1 24 13 ENE 0,0
17.04.2019 19:00:00 13,9 0,8 18 10 NNE 0,0
17.04.2019 18:00:00 17,0 -3,7 9 5 WSW 0,0
17.04.2019 17:00:00 16,7 -2,9 15 8 WSW 0,0
17.04.2019 16:00:00 16,8 -3,4 16 9 WSW 0,0
17.04.2019 15:00:00 15,9 -4,1 18 10 SW 0,0
17.04.2019 14:00:00 15,9 -3,6 16 9 SW 0,0
17.04.2019 13:00:00 13,9 -0,9 7 4 SSW 0,0
17.04.2019 12:00:00 12,3 0,1 4 2 ENE 0,0
17.04.2019 11:00:00 10,2 -0,3 8 4 SSE 0,0
17.04.2019 10:00:00 9,0 -0,1 2 1 S 0,0
17.04.2019 09:00:00 6,5 0,8 2 1 S 0,0
17.04.2019 08:00:00 3,7 -0,1 4 2 SE 0,0
17.04.2019 07:00:00 3,2 1,1 0 0 N 0,0
17.04.2019 06:00:00 3,8 1,5 0 0 N 0,0
17.04.2019 05:00:00 4,1 1,6 0 0 N 0,0
17.04.2019 04:00:00 4,4 1,8 0 0 N 0,0
17.04.2019 03:00:00 4,5 1,7 0 0 N 0,0

tt = Température de l'air
td = dewpoint
ff = Vitesse du vent
dd = Direction du vent
rr = Quantités de précipitations

stations d'obs. à proximité